sensor_id;sensor_type;location;lat;lon;timestamp;pressure;altitude;pressure_sealevel;temperature;humidity
16525;BME280;8375;33.594;-117.718;2023-03-22T00:00:12;99430.59;;;12.94;96.61
16525;BME280;8375;33.594;-117.718;2023-03-22T00:02:42;99441.50;;;12.89;97.76
16525;BME280;8375;33.594;-117.718;2023-03-22T00:05:11;99439.94;;;12.78;100.00
16525;BME280;8375;33.594;-117.718;2023-03-22T00:07:40;99429.56;;;12.60;100.00
16525;BME280;8375;33.594;-117.718;2023-03-22T00:10:09;99429.38;;;12.61;100.00
16525;BME280;8375;33.594;-117.718;2023-03-22T00:12:38;99427.00;;;12.68;100.00
16525;BME280;8375;33.594;-117.718;2023-03-22T00:15:12;99414.91;;;12.59;100.00
16525;BME280;8375;33.594;-117.718;2023-03-22T00:17:41;99410.28;;;12.35;100.00
16525;BME280;8375;33.594;-117.718;2023-03-22T00:20:11;99406.81;;;12.26;100.00
16525;BME280;8375;33.594;-117.718;2023-03-22T00:22:39;99414.53;;;12.17;100.00
16525;BME280;8375;33.594;-117.718;2023-03-22T00:25:09;99415.13;;;12.11;100.00
16525;BME280;8375;33.594;-117.718;2023-03-22T00:27:38;99412.66;;;12.10;100.00
16525;BME280;8375;33.594;-117.718;2023-03-22T00:30:09;99414.06;;;12.04;100.00
16525;BME280;8375;33.594;-117.718;2023-03-22T00:32:40;99420.63;;;11.98;100.00
16525;BME280;8375;33.594;-117.718;2023-03-22T00:35:10;99405.47;;;11.94;100.00
16525;BME280;8375;33.594;-117.718;2023-03-22T00:37:41;99423.31;;;11.88;100.00
16525;BME280;8375;33.594;-117.718;2023-03-22T00:40:11;99435.75;;;11.85;100.00
16525;BME280;8375;33.594;-117.718;2023-03-22T00:42:41;99429.88;;;11.83;100.00
16525;BME280;8375;33.594;-117.718;2023-03-22T00:45:11;99425.59;;;11.92;100.00
16525;BME280;8375;33.594;-117.718;2023-03-22T00:47:41;99433.13;;;11.95;100.00
16525;BME280;8375;33.594;-117.718;2023-03-22T00:50:10;99442.84;;;11.93;100.00
16525;BME280;8375;33.594;-117.718;2023-03-22T00:52:39;99421.38;;;11.91;100.00
16525;BME280;8375;33.594;-117.718;2023-03-22T00:55:08;99489.28;;;11.87;100.00
16525;BME280;8375;33.594;-117.718;2023-03-22T00:57:40;99527.97;;;11.53;100.00
16525;BME280;8375;33.594;-117.718;2023-03-22T01:00:09;99498.13;;;10.99;100.00
16525;BME280;8375;33.594;-117.718;2023-03-22T01:02:43;99493.75;;;10.80;100.00
16525;BME280;8375;33.594;-117.718;2023-03-22T01:05:12;99506.31;;;10.75;100.00
16525;BME280;8375;33.594;-117.718;2023-03-22T01:07:42;99496.50;;;10.79;100.00
16525;BME280;8375;33.594;-117.718;2023-03-22T01:10:11;99495.53;;;10.70;100.00
16525;BME280;8375;33.594;-117.718;2023-03-22T01:12:40;99487.19;;;10.66;100.00
16525;BME280;8375;33.594;-117.718;2023-03-22T01:15:09;99487.97;;;10.57;100.00
16525;BME280;8375;33.594;-117.718;2023-03-22T01:17:38;99500.81;;;10.49;100.00
16525;BME280;8375;33.594;-117.718;2023-03-22T01:20:10;99514.75;;;10.48;100.00
16525;BME280;8375;33.594;-117.718;2023-03-22T01:22:38;99497.81;;;10.44;100.00
16525;BME280;8375;33.594;-117.718;2023-03-22T01:25:08;99480.41;;;10.34;100.00
16525;BME280;8375;33.594;-117.718;2023-03-22T01:27:37;99499.94;;;10.38;100.00
16525;BME280;8375;33.594;-117.718;2023-03-22T01:30:06;99495.59;;;10.39;100.00
16525;BME280;8375;33.594;-117.718;2023-03-22T01:32:36;99470.72;;;10.26;100.00
16525;BME280;8375;33.594;-117.718;2023-03-22T01:35:05;99461.56;;;10.32;100.00
16525;BME280;8375;33.594;-117.718;2023-03-22T01:37:35;99461.28;;;10.35;100.00
16525;BME280;8375;33.594;-117.718;2023-03-22T01:40:05;99456.25;;;10.34;100.00
16525;BME280;8375;33.594;-117.718;2023-03-22T01:42:34;99451.75;;;10.36;100.00
16525;BME280;8375;33.594;-117.718;2023-03-22T01:45:39;99451.88;;;10.34;100.00
16525;BME280;8375;33.594;-117.718;2023-03-22T01:48:18;99448.50;;;10.44;100.00
16525;BME280;8375;33.594;-117.718;2023-03-22T01:50:54;99457.91;;;10.45;100.00
16525;BME280;8375;33.594;-117.718;2023-03-22T01:53:31;99455.22;;;10.46;100.00
16525;BME280;8375;33.594;-117.718;2023-03-22T01:56:01;99455.06;;;10.48;100.00
16525;BME280;8375;33.594;-117.718;2023-03-22T01:58:33;99452.47;;;10.48;100.00
16525;BME280;8375;33.594;-117.718;2023-03-22T02:01:05;99449.47;;;10.42;100.00
16525;BME280;8375;33.594;-117.718;2023-03-22T02:03:39;99464.72;;;10.36;100.00
16525;BME280;8375;33.594;-117.718;2023-03-22T02:06:10;99452.19;;;10.41;100.00
16525;BME280;8375;33.594;-117.718;2023-03-22T02:08:40;99451.78;;;10.46;100.00
16525;BME280;8375;33.594;-117.718;2023-03-22T02:11:13;99456.69;;;10.49;100.00
16525;BME280;8375;33.594;-117.718;2023-03-22T02:14:05;99470.09;;;10.54;100.00
16525;BME280;8375;33.594;-117.718;2023-03-22T02:16:46;99467.22;;;10.57;100.00
16525;BME280;8375;33.594;-117.718;2023-03-22T02:26:02;99496.44;;;10.59;100.00
16525;BME280;8375;33.594;-117.718;2023-03-22T02:28:41;99496.72;;;10.56;100.00
16525;BME280;8375;33.594;-117.718;2023-03-22T02:31:38;99501.91;;;10.56;100.00
16525;BME280;8375;33.594;-117.718;2023-03-22T02:34:31;99507.66;;;10.60;100.00
16525;BME280;8375;33.594;-117.718;2023-03-22T02:40:03;99508.22;;;10.63;100.00
16525;BME280;8375;33.594;-117.718;2023-03-22T02:42:42;99517.50;;;10.66;100.00
16525;BME280;8375;33.594;-117.718;2023-03-22T02:45:15;99524.63;;;10.64;100.00
16525;BME280;8375;33.594;-117.718;2023-03-22T02:47:52;99536.25;;;10.69;100.00
16525;BME280;8375;33.594;-117.718;2023-03-22T02:50:25;99541.03;;;10.74;100.00
16525;BME280;8375;33.594;-117.718;2023-03-22T02:53:01;99551.13;;;10.77;100.00
16525;BME280;8375;33.594;-117.718;2023-03-22T02:55:36;99542.94;;;10.82;100.00
16525;BME280;8375;33.594;-117.718;2023-03-22T02:58:10;99546.78;;;10.78;100.00
16525;BME280;8375;33.594;-117.718;2023-03-22T03:00:40;99545.41;;;10.74;100.00
16525;BME280;8375;33.594;-117.718;2023-03-22T03:03:11;99536.78;;;10.63;100.00
16525;BME280;8375;33.594;-117.718;2023-03-22T03:05:45;99536.78;;;10.63;100.00
16525;BME280;8375;33.594;-117.718;2023-03-22T03:08:16;99540.72;;;10.57;100.00
16525;BME280;8375;33.594;-117.718;2023-03-22T03:10:47;99539.78;;;10.59;100.00
16525;BME280;8375;33.594;-117.718;2023-03-22T03:13:17;99546.59;;;10.60;100.00
16525;BME280;8375;33.594;-117.718;2023-03-22T03:15:50;99543.16;;;10.59;100.00
16525;BME280;8375;33.594;-117.718;2023-03-22T03:18:28;99534.56;;;10.59;100.00
16525;BME280;8375;33.594;-117.718;2023-03-22T03:21:05;99542.63;;;10.55;100.00
16525;BME280;8375;33.594;-117.718;2023-03-22T03:23:46;99539.09;;;10.56;100.00
16525;BME280;8375;33.594;-117.718;2023-03-22T03:26:28;99548.91;;;10.53;100.00
16525;BME280;8375;33.594;-117.718;2023-03-22T03:29:04;99548.22;;;10.51;100.00
16525;BME280;8375;33.594;-117.718;2023-03-22T03:31:40;99555.72;;;10.54;100.00
16525;BME280;8375;33.594;-117.718;2023-03-22T03:34:14;99555.47;;;10.47;100.00
16525;BME280;8375;33.594;-117.718;2023-03-22T03:36:51;99547.41;;;10.50;100.00
16525;BME280;8375;33.594;-117.718;2023-03-22T03:39:22;99559.13;;;10.45;100.00
16525;BME280;8375;33.594;-117.718;2023-03-22T03:41:54;99546.16;;;10.45;100.00
16525;BME280;8375;33.594;-117.718;2023-03-22T03:44:24;99544.38;;;10.45;100.00
16525;BME280;8375;33.594;-117.718;2023-03-22T03:46:53;99550.25;;;10.47;100.00
16525;BME280;8375;33.594;-117.718;2023-03-22T03:49:22;99583.84;;;10.49;100.00
16525;BME280;8375;33.594;-117.718;2023-03-22T03:51:54;99603.28;;;10.54;100.00
16525;BME280;8375;33.594;-117.718;2023-03-22T03:54:23;99600.53;;;10.46;100.00
16525;BME280;8375;33.594;-117.718;2023-03-22T03:56:53;99596.97;;;10.47;100.00
16525;BME280;8375;33.594;-117.718;2023-03-22T03:59:22;99595.94;;;10.38;100.00
16525;BME280;8375;33.594;-117.718;2023-03-22T04:01:51;99608.81;;;10.40;100.00
16525;BME280;8375;33.594;-117.718;2023-03-22T04:04:22;99614.38;;;10.35;100.00
16525;BME280;8375;33.594;-117.718;2023-03-22T04:06:54;99617.66;;;10.37;100.00
16525;BME280;8375;33.594;-117.718;2023-03-22T04:09:24;99614.38;;;10.35;100.00
16525;BME280;8375;33.594;-117.718;2023-03-22T04:11:55;99624.75;;;10.35;100.00
16525;BME280;8375;33.594;-117.718;2023-03-22T04:14:24;99635.13;;;10.35;100.00
16525;BME280;8375;33.594;-117.718;2023-03-22T04:16:53;99630.63;;;10.37;100.00
16525;BME280;8375;33.594;-117.718;2023-03-22T04:19:22;99640.88;;;10.39;100.00
16525;BME280;8375;33.594;-117.718;2023-03-22T04:21:51;99648.09;;;10.35;100.00
16525;BME280;8375;33.594;-117.718;2023-03-22T04:24:20;99655.06;;;10.35;100.00
16525;BME280;8375;33.594;-117.718;2023-03-22T04:26:48;99661.06;;;10.35;100.00
16525;BME280;8375;33.594;-117.718;2023-03-22T04:29:19;99663.13;;;10.32;100.00
16525;BME280;8375;33.594;-117.718;2023-03-22T04:31:49;99661.59;;;10.29;100.00
16525;BME280;8375;33.594;-117.718;2023-03-22T04:34:18;99665.81;;;10.30;100.00
16525;BME280;8375;33.594;-117.718;2023-03-22T04:36:47;99657.78;;;10.33;100.00
16525;BME280;8375;33.594;-117.718;2023-03-22T04:39:16;99654.22;;;10.34;100.00
16525;BME280;8375;33.594;-117.718;2023-03-22T04:41:44;99665.44;;;10.35;100.00
16525;BME280;8375;33.594;-117.718;2023-03-22T04:44:13;99658.94;;;10.40;100.00
16525;BME280;8375;33.594;-117.718;2023-03-22T04:46:43;99676.72;;;10.45;100.00
16525;BME280;8375;33.594;-117.718;2023-03-22T04:49:12;99679.16;;;10.47;100.00
16525;BME280;8375;33.594;-117.718;2023-03-22T04:51:41;99680.81;;;10.48;100.00
16525;BME280;8375;33.594;-117.718;2023-03-22T04:54:09;99693.09;;;10.46;100.00
16525;BME280;8375;33.594;-117.718;2023-03-22T04:56:38;99701.72;;;10.46;100.00
16525;BME280;8375;33.594;-117.718;2023-03-22T04:59:07;99703.75;;;10.42;100.00
16525;BME280;8375;33.594;-117.718;2023-03-22T05:01:36;99706.59;;;10.39;100.00
16525;BME280;8375;33.594;-117.718;2023-03-22T05:04:07;99709.56;;;10.35;100.00
16525;BME280;8375;33.594;-117.718;2023-03-22T05:06:36;99716.91;;;10.30;100.00
16525;BME280;8375;33.594;-117.718;2023-03-22T05:09:05;99728.34;;;10.27;99.74
16525;BME280;8375;33.594;-117.718;2023-03-22T05:11:33;99726.25;;;10.21;95.27
16525;BME280;8375;33.594;-117.718;2023-03-22T05:14:02;99729.09;;;10.18;94.34
16525;BME280;8375;33.594;-117.718;2023-03-22T05:16:31;99733.84;;;10.12;94.44
16525;BME280;8375;33.594;-117.718;2023-03-22T05:19:00;99746.81;;;10.12;95.28
16525;BME280;8375;33.594;-117.718;2023-03-22T05:21:30;99734.78;;;10.11;95.07
16525;BME280;8375;33.594;-117.718;2023-03-22T05:24:02;99744.91;;;10.15;95.89
16525;BME280;8375;33.594;-117.718;2023-03-22T05:26:31;99749.16;;;10.16;97.33
16525;BME280;8375;33.594;-117.718;2023-03-22T05:29:03;99738.78;;;10.16;97.54
16525;BME280;8375;33.594;-117.718;2023-03-22T05:31:32;99741.81;;;10.21;98.35
16525;BME280;8375;33.594;-117.718;2023-03-22T05:34:01;99740.88;;;10.22;98.40
16525;BME280;8375;33.594;-117.718;2023-03-22T05:36:32;99742.16;;;10.27;98.44
16525;BME280;8375;33.594;-117.718;2023-03-22T05:39:02;99750.63;;;10.30;97.64
16525;BME280;8375;33.594;-117.718;2023-03-22T05:41:30;99748.47;;;10.35;98.27
16525;BME280;8375;33.594;-117.718;2023-03-22T05:43:59;99744.94;;;10.36;99.21
16525;BME280;8375;33.594;-117.718;2023-03-22T05:46:28;99747.03;;;10.42;99.99
16525;BME280;8375;33.594;-117.718;2023-03-22T05:48:57;99752.09;;;10.44;99.68
16525;BME280;8375;33.594;-117.718;2023-03-22T05:51:26;99748.53;;;10.45;98.87
16525;BME280;8375;33.594;-117.718;2023-03-22T05:53:56;99762.91;;;10.49;100.00
16525;BME280;8375;33.594;-117.718;2023-03-22T05:56:25;99781.06;;;10.49;100.00
16525;BME280;8375;33.594;-117.718;2023-03-22T05:58:54;99784.50;;;10.49;100.00
16525;BME280;8375;33.594;-117.718;2023-03-22T06:01:23;99771.94;;;10.33;96.37
16525;BME280;8375;33.594;-117.718;2023-03-22T06:03:52;99773.66;;;10.23;97.70
16525;BME280;8375;33.594;-117.718;2023-03-22T06:06:21;99784.66;;;10.15;98.80
16525;BME280;8375;33.594;-117.718;2023-03-22T06:08:49;99775.03;;;10.06;100.00
16525;BME280;8375;33.594;-117.718;2023-03-22T06:11:20;99781.53;;;10.00;100.00
16525;BME280;8375;33.594;-117.718;2023-03-22T06:13:50;99782.16;;;9.92;100.00
16525;BME280;8375;33.594;-117.718;2023-03-22T06:16:18;99785.00;;;9.89;100.00
16525;BME280;8375;33.594;-117.718;2023-03-22T06:18:47;99790.44;;;9.86;99.38
16525;BME280;8375;33.594;-117.718;2023-03-22T06:21:16;99800.47;;;9.79;97.17
16525;BME280;8375;33.594;-117.718;2023-03-22T06:23:45;99800.47;;;9.79;94.73
16525;BME280;8375;33.594;-117.718;2023-03-22T06:26:13;99794.34;;;9.80;94.85
16525;BME280;8375;33.594;-117.718;2023-03-22T06:28:44;99822.59;;;9.83;97.95
16525;BME280;8375;33.594;-117.718;2023-03-22T06:31:12;99811.78;;;9.78;97.16
16525;BME280;8375;33.594;-117.718;2023-03-22T06:33:41;99810.28;;;9.76;96.98
16525;BME280;8375;33.594;-117.718;2023-03-22T06:36:11;99813.34;;;9.69;96.57
16525;BME280;8375;33.594;-117.718;2023-03-22T06:38:39;99810.16;;;9.66;98.63
16525;BME280;8375;33.594;-117.718;2023-03-22T06:41:09;99809.69;;;9.61;98.92
16525;BME280;8375;33.594;-117.718;2023-03-22T06:43:37;99818.81;;;9.55;98.21
16525;BME280;8375;33.594;-117.718;2023-03-22T06:46:08;99821.41;;;9.55;99.26
16525;BME280;8375;33.594;-117.718;2023-03-22T06:48:36;99825.16;;;9.51;98.33
16525;BME280;8375;33.594;-117.718;2023-03-22T06:51:06;99823.88;;;9.45;99.59
16525;BME280;8375;33.594;-117.718;2023-03-22T06:53:34;99811.28;;;9.41;100.00
16525;BME280;8375;33.594;-117.718;2023-03-22T06:56:04;99811.06;;;9.32;98.26
16525;BME280;8375;33.594;-117.718;2023-03-22T06:58:33;99820.59;;;9.32;99.39
16525;BME280;8375;33.594;-117.718;2023-03-22T07:01:02;99828.59;;;9.29;100.00
16525;BME280;8375;33.594;-117.718;2023-03-22T07:03:33;99821.28;;;9.22;99.14
16525;BME280;8375;33.594;-117.718;2023-03-22T07:06:02;99820.50;;;9.22;99.66
16525;BME280;8375;33.594;-117.718;2023-03-22T07:08:32;99831.56;;;9.24;99.98
16525;BME280;8375;33.594;-117.718;2023-03-22T07:11:01;99818.47;;;9.25;100.00
16525;BME280;8375;33.594;-117.718;2023-03-22T07:13:30;99826.94;;;9.28;100.00
16525;BME280;8375;33.594;-117.718;2023-03-22T07:16:01;99822.59;;;9.28;100.00
16525;BME280;8375;33.594;-117.718;2023-03-22T07:18:32;99824.81;;;9.33;100.00
16525;BME280;8375;33.594;-117.718;2023-03-22T07:21:01;99830.59;;;9.36;100.00
16525;BME280;8375;33.594;-117.718;2023-03-22T07:23:30;99839.66;;;9.42;100.00
16525;BME280;8375;33.594;-117.718;2023-03-22T07:26:01;99844.13;;;9.40;100.00
16525;BME280;8375;33.594;-117.718;2023-03-22T07:28:30;99845.66;;;9.43;100.00
16525;BME280;8375;33.594;-117.718;2023-03-22T07:31:03;99853.44;;;9.43;100.00
16525;BME280;8375;33.594;-117.718;2023-03-22T07:33:34;99850.25;;;9.39;100.00
16525;BME280;8375;33.594;-117.718;2023-03-22T07:36:03;99856.84;;;9.32;98.47
16525;BME280;8375;33.594;-117.718;2023-03-22T07:38:32;99858.72;;;9.30;97.39
16525;BME280;8375;33.594;-117.718;2023-03-22T07:41:01;99855.09;;;9.32;96.53
16525;BME280;8375;33.594;-117.718;2023-03-22T07:43:29;99855.09;;;9.32;95.20
16525;BME280;8375;33.594;-117.718;2023-03-22T07:45:58;99859.34;;;9.33;98.50
16525;BME280;8375;33.594;-117.718;2023-03-22T07:48:27;99865.47;;;9.32;98.21
16525;BME280;8375;33.594;-117.718;2023-03-22T07:50:58;99870.97;;;9.28;97.63
16525;BME280;8375;33.594;-117.718;2023-03-22T07:53:27;99868.16;;;9.31;97.95
16525;BME280;8375;33.594;-117.718;2023-03-22T07:55:56;99878.66;;;9.29;97.80
16525;BME280;8375;33.594;-117.718;2023-03-22T07:58:24;99876.88;;;9.30;97.97
16525;BME280;8375;33.594;-117.718;2023-03-22T08:00:53;99871.81;;;9.28;97.07
16525;BME280;8375;33.594;-117.718;2023-03-22T08:03:22;99881.81;;;9.33;98.41
16525;BME280;8375;33.594;-117.718;2023-03-22T08:05:50;99881.72;;;9.34;98.28
16525;BME280;8375;33.594;-117.718;2023-03-22T08:08:21;99878.19;;;9.35;98.89
16525;BME280;8375;33.594;-117.718;2023-03-22T08:10:49;99877.47;;;9.33;98.92
16525;BME280;8375;33.594;-117.718;2023-03-22T08:13:18;99867.69;;;9.25;97.56
16525;BME280;8375;33.594;-117.718;2023-03-22T08:15:47;99874.63;;;9.25;99.73
16525;BME280;8375;33.594;-117.718;2023-03-22T08:18:16;99863.44;;;9.24;99.75
16525;BME280;8375;33.594;-117.718;2023-03-22T08:20:44;99870.28;;;9.25;100.00
16525;BME280;8375;33.594;-117.718;2023-03-22T08:23:13;99874.75;;;9.23;100.00
16525;BME280;8375;33.594;-117.718;2023-03-22T08:25:44;99882.75;;;9.20;100.00
16525;BME280;8375;33.594;-117.718;2023-03-22T08:28:12;99878.19;;;9.24;100.00
16525;BME280;8375;33.594;-117.718;2023-03-22T08:30:41;99887.13;;;9.31;98.85
16525;BME280;8375;33.594;-117.718;2023-03-22T08:33:10;99889.59;;;9.33;98.59
16525;BME280;8375;33.594;-117.718;2023-03-22T08:35:39;99881.00;;;9.32;98.38
16525;BME280;8375;33.594;-117.718;2023-03-22T08:38:08;99879.13;;;9.34;98.85
16525;BME280;8375;33.594;-117.718;2023-03-22T08:40:37;99884.16;;;9.36;99.81
16525;BME280;8375;33.594;-117.718;2023-03-22T08:43:07;99890.28;;;9.35;99.06
16525;BME280;8375;33.594;-117.718;2023-03-22T08:45:36;99885.47;;;9.30;98.25
16525;BME280;8375;33.594;-117.718;2023-03-22T08:48:05;99896.66;;;9.31;97.37
16525;BME280;8375;33.594;-117.718;2023-03-22T08:50:34;99891.59;;;9.29;98.54
16525;BME280;8375;33.594;-117.718;2023-03-22T08:53:03;99896.78;;;9.29;99.45
16525;BME280;8375;33.594;-117.718;2023-03-22T08:55:31;99899.22;;;9.31;99.30
16525;BME280;8375;33.594;-117.718;2023-03-22T08:58:01;99911.94;;;9.34;100.00
16525;BME280;8375;33.594;-117.718;2023-03-22T09:00:32;99918.31;;;9.30;96.75
16525;BME280;8375;33.594;-117.718;2023-03-22T09:03:00;99917.59;;;9.28;97.66
16525;BME280;8375;33.594;-117.718;2023-03-22T09:05:29;99920.31;;;9.26;99.12
16525;BME280;8375;33.594;-117.718;2023-03-22T09:07:58;99923.00;;;9.24;100.00
16525;BME280;8375;33.594;-117.718;2023-03-22T09:10:27;99912.66;;;9.24;100.00
16525;BME280;8375;33.594;-117.718;2023-03-22T09:12:56;99908.06;;;9.17;100.00
16525;BME280;8375;33.594;-117.718;2023-03-22T09:15:25;99904.53;;;9.18;100.00
16525;BME280;8375;33.594;-117.718;2023-03-22T09:17:55;99900.41;;;9.15;100.00
16525;BME280;8375;33.594;-117.718;2023-03-22T09:20:24;99906.03;;;9.09;100.00
16525;BME280;8375;33.594;-117.718;2023-03-22T09:22:53;99904.16;;;9.11;100.00
16525;BME280;8375;33.594;-117.718;2023-03-22T09:25:22;99913.00;;;9.08;100.00
16525;BME280;8375;33.594;-117.718;2023-03-22T09:27:51;99905.34;;;9.07;100.00
16525;BME280;8375;33.594;-117.718;2023-03-22T09:30:19;99908.63;;;9.09;100.00
16525;BME280;8375;33.594;-117.718;2023-03-22T09:32:48;99917.09;;;9.11;100.00
16525;BME280;8375;33.594;-117.718;2023-03-22T09:35:18;99914.41;;;9.13;100.00
16525;BME280;8375;33.594;-117.718;2023-03-22T09:37:47;99927.94;;;9.16;100.00
16525;BME280;8375;33.594;-117.718;2023-03-22T09:40:18;99927.47;;;9.22;100.00
16525;BME280;8375;33.594;-117.718;2023-03-22T09:42:49;99935.03;;;9.25;100.00
16525;BME280;8375;33.594;-117.718;2023-03-22T09:45:22;99941.38;;;9.33;100.00
16525;BME280;8375;33.594;-117.718;2023-03-22T09:47:58;99954.94;;;9.36;100.00
16525;BME280;8375;33.594;-117.718;2023-03-22T09:50:31;99957.19;;;9.41;100.00
16525;BME280;8375;33.594;-117.718;2023-03-22T09:52:59;99960.47;;;9.32;100.00
16525;BME280;8375;33.594;-117.718;2023-03-22T09:55:34;99960.44;;;9.20;100.00
16525;BME280;8375;33.594;-117.718;2023-03-22T09:58:09;99956.78;;;9.12;100.00
16525;BME280;8375;33.594;-117.718;2023-03-22T10:00:42;99964.88;;;9.07;100.00
16525;BME280;8375;33.594;-117.718;2023-03-22T10:03:20;99958.75;;;8.97;100.00
16525;BME280;8375;33.594;-117.718;2023-03-22T10:06:02;99954.16;;;8.89;100.00
16525;BME280;8375;33.594;-117.718;2023-03-22T10:08:47;99957.28;;;8.81;100.00
16525;BME280;8375;33.594;-117.718;2023-03-22T10:11:24;99971.03;;;8.70;100.00
16525;BME280;8375;33.594;-117.718;2023-03-22T10:14:01;99986.66;;;8.69;100.00
16525;BME280;8375;33.594;-117.718;2023-03-22T10:16:34;99984.91;;;8.69;100.00
16525;BME280;8375;33.594;-117.718;2023-03-22T10:19:06;99989.69;;;8.62;100.00
16525;BME280;8375;33.594;-117.718;2023-03-22T10:21:41;99990.47;;;8.51;100.00
16525;BME280;8375;33.594;-117.718;2023-03-22T10:24:15;99996.22;;;8.55;100.00
16525;BME280;8375;33.594;-117.718;2023-03-22T10:26:47;99991.56;;;8.60;100.00
16525;BME280;8375;33.594;-117.718;2023-03-22T10:29:20;100001.19;;;8.58;100.00
16525;BME280;8375;33.594;-117.718;2023-03-22T10:31:50;99992.50;;;8.59;100.00
16525;BME280;8375;33.594;-117.718;2023-03-22T10:34:20;99990.66;;;8.48;100.00
16525;BME280;8375;33.594;-117.718;2023-03-22T10:36:51;99994.78;;;8.51;100.00
16525;BME280;8375;33.594;-117.718;2023-03-22T10:39:27;99997.16;;;8.54;100.00
16525;BME280;8375;33.594;-117.718;2023-03-22T10:41:59;99998.41;;;8.48;100.00
16525;BME280;8375;33.594;-117.718;2023-03-22T10:44:32;100000.91;;;8.50;100.00
16525;BME280;8375;33.594;-117.718;2023-03-22T10:47:04;100010.22;;;8.53;100.00
16525;BME280;8375;33.594;-117.718;2023-03-22T10:49:38;100004.03;;;8.66;100.00
16525;BME280;8375;33.594;-117.718;2023-03-22T10:52:21;100006.25;;;8.84;100.00
16525;BME280;8375;33.594;-117.718;2023-03-22T10:54:55;100006.69;;;8.78;100.00
16525;BME280;8375;33.594;-117.718;2023-03-22T10:57:24;100007.03;;;8.73;100.00
16525;BME280;8375;33.594;-117.718;2023-03-22T10:59:55;100006.34;;;8.58;100.00
16525;BME280;8375;33.594;-117.718;2023-03-22T11:02:25;100000.59;;;8.55;100.00
16525;BME280;8375;33.594;-117.718;2023-03-22T11:04:56;100004.94;;;8.54;100.00
16525;BME280;8375;33.594;-117.718;2023-03-22T11:07:31;100022.31;;;8.52;100.00
16525;BME280;8375;33.594;-117.718;2023-03-22T11:10:22;100019.13;;;8.35;100.00
16525;BME280;8375;33.594;-117.718;2023-03-22T11:12:54;100019.03;;;8.37;100.00
16525;BME280;8375;33.594;-117.718;2023-03-22T11:15:28;100027.75;;;8.23;100.00
16525;BME280;8375;33.594;-117.718;2023-03-22T11:18:03;100030.75;;;8.30;100.00
16525;BME280;8375;33.594;-117.718;2023-03-22T11:20:33;100036.94;;;8.40;100.00
16525;BME280;8375;33.594;-117.718;2023-03-22T11:23:04;100036.22;;;8.38;100.00
16525;BME280;8375;33.594;-117.718;2023-03-22T11:25:35;100034.66;;;8.35;100.00
16525;BME280;8375;33.594;-117.718;2023-03-22T11:28:14;100042.41;;;8.35;100.00
16525;BME280;8375;33.594;-117.718;2023-03-22T11:30:58;100045.44;;;8.29;100.00
16525;BME280;8375;33.594;-117.718;2023-03-22T11:33:27;100049.66;;;8.43;100.00
16525;BME280;8375;33.594;-117.718;2023-03-22T11:35:57;100053.78;;;8.46;100.00
16525;BME280;8375;33.594;-117.718;2023-03-22T11:38:35;100058.22;;;8.44;100.00
16525;BME280;8375;33.594;-117.718;2023-03-22T11:41:09;100063.09;;;8.48;100.00
16525;BME280;8375;33.594;-117.718;2023-03-22T11:43:40;100063.84;;;8.50;100.00
16525;BME280;8375;33.594;-117.718;2023-03-22T11:46:15;100066.31;;;8.52;100.00
16525;BME280;8375;33.594;-117.718;2023-03-22T11:48:45;100071.78;;;8.47;100.00
16525;BME280;8375;33.594;-117.718;2023-03-22T11:51:16;100080.50;;;8.33;100.00
16525;BME280;8375;33.594;-117.718;2023-03-22T11:53:48;100073.50;;;8.22;100.00
16525;BME280;8375;33.594;-117.718;2023-03-22T11:56:17;100084.66;;;8.23;100.00
16525;BME280;8375;33.594;-117.718;2023-03-22T11:58:56;100093.75;;;8.16;100.00
16525;BME280;8375;33.594;-117.718;2023-03-22T12:01:37;100092.72;;;8.05;100.00
16525;BME280;8375;33.594;-117.718;2023-03-22T12:04:12;100091.91;;;8.05;100.00
16525;BME280;8375;33.594;-117.718;2023-03-22T12:06:43;100103.06;;;8.31;100.00
16525;BME280;8375;33.594;-117.718;2023-03-22T12:09:21;100100.78;;;8.27;100.00
16525;BME280;8375;33.594;-117.718;2023-03-22T12:11:54;100104.09;;;8.29;100.00
16525;BME280;8375;33.594;-117.718;2023-03-22T12:14:27;100104.41;;;8.24;100.00
16525;BME280;8375;33.594;-117.718;2023-03-22T12:17:00;100108.56;;;8.14;100.00
16525;BME280;8375;33.594;-117.718;2023-03-22T12:19:40;100108.38;;;8.04;100.00
16525;BME280;8375;33.594;-117.718;2023-03-22T12:22:14;100110.63;;;8.08;100.00
16525;BME280;8375;33.594;-117.718;2023-03-22T12:24:45;100120.44;;;8.29;100.00
16525;BME280;8375;33.594;-117.718;2023-03-22T12:27:17;100132.31;;;8.45;100.00
16525;BME280;8375;33.594;-117.718;2023-03-22T12:29:52;100135.75;;;8.32;100.00
16525;BME280;8375;33.594;-117.718;2023-03-22T12:32:25;100143.00;;;8.27;100.00
16525;BME280;8375;33.594;-117.718;2023-03-22T12:34:55;100143.22;;;8.11;100.00
16525;BME280;8375;33.594;-117.718;2023-03-22T12:37:27;100148.69;;;8.32;100.00
16525;BME280;8375;33.594;-117.718;2023-03-22T12:40:02;100157.78;;;8.51;100.00
16525;BME280;8375;33.594;-117.718;2023-03-22T12:42:36;100162.44;;;8.59;100.00
16525;BME280;8375;33.594;-117.718;2023-03-22T12:45:13;100170.63;;;8.53;100.00
16525;BME280;8375;33.594;-117.718;2023-03-22T12:47:44;100176.50;;;8.42;100.00
16525;BME280;8375;33.594;-117.718;2023-03-22T12:50:17;100170.81;;;8.36;100.00
16525;BME280;8375;33.594;-117.718;2023-03-22T12:52:48;100181.25;;;8.48;100.00
16525;BME280;8375;33.594;-117.718;2023-03-22T12:55:23;100189.78;;;8.50;100.00
16525;BME280;8375;33.594;-117.718;2023-03-22T12:57:53;100192.66;;;8.58;100.00
16525;BME280;8375;33.594;-117.718;2023-03-22T13:00:26;100184.78;;;8.47;100.00
16525;BME280;8375;33.594;-117.718;2023-03-22T13:02:59;100187.28;;;8.48;100.00
16525;BME280;8375;33.594;-117.718;2023-03-22T13:05:32;100194.94;;;8.37;100.00